Terminal Aerodrome Forecast
Issued by NWS Mt. Holly, NJ

Home | Current Version | Previous Version | Text Only | Print | Product List | Glossary On
Versions: 1 2 3 4 5 6 7 8 9 10 11 12 13 14 15 16 17 18 19 20 21 22 23 24 25 26 27 28 29 30
000
FTUS41 KPHI 022343
TAFACY
TAF
KACY 022343Z 0300/0324 VRB03KT 4SM BR OVC006
     FM030400 02002KT 3SM BR OVC003
     FM031300 04004KT 5SM BR BKN009 BKN250
     FM031500 10006KT 6SM HZ FEW020 BKN250=

USA.gov is the U.S. government's official web portal to all federal, state and local government web resources and services.